Harrison, Arkansas
Current Conditions -  °F | °C
As of 9:53 PM on Monday 22 Dec 2014 (Local Time) from KHRO Reporting Station
Overcast Overcast  
Wind Chill: 44°   Ceiling: 2700
Heat Index: 47°   Visibility: 10mi
Dew Point: 44°   Wind: 7mph
Humidity: 90%   Direction: 320°NW
Pressure: 29.63"   Gusts: NA
Location:  36.23°N, 93.11°W
Report Text: KHRO 230353Z AUTO 32006KT 10SM SCT020 OVC027 08/07 A2963 RMK AO2 SLP032 T00830067
Loading
Personal Weather Stations






























Interactive Weather Map New forecast layout! Learn more

10-Day Weather Forecast

Advertisements
Track Severe Weather on mobile